createdAt,value
2023-05-21T00:01:48.639Z,17.65
2023-05-21T00:04:18.017Z,19.13
2023-05-21T00:06:46.151Z,19.10
2023-05-21T00:09:14.322Z,16.52
2023-05-21T00:11:47.276Z,15.40
2023-05-21T00:14:15.590Z,14.48
2023-05-21T00:16:45.246Z,12.63
2023-05-21T00:19:13.186Z,16.98
2023-05-21T00:21:42.702Z,13.70
2023-05-21T00:24:11.784Z,12.32
2023-05-21T00:26:39.800Z,12.88
2023-05-21T00:29:07.906Z,15.00
2023-05-21T00:31:36.056Z,11.38
2023-05-21T00:34:04.079Z,11.93
2023-05-21T00:36:31.986Z,12.57
2023-05-21T00:39:06.034Z,11.32
2023-05-21T00:41:35.621Z,12.83
2023-05-21T00:44:03.925Z,11.73
2023-05-21T00:46:32.049Z,11.07
2023-05-21T00:49:02.422Z,11.43
2023-05-21T00:51:30.647Z,10.60
2023-05-21T00:54:00.169Z,11.90
2023-05-21T00:56:29.733Z,13.35
2023-05-21T00:58:58.746Z,11.57
2023-05-21T01:01:26.991Z,11.55
2023-05-21T01:03:57.836Z,11.50
2023-05-21T01:06:25.841Z,11.03
2023-05-21T01:08:53.599Z,11.57
2023-05-21T01:11:22.041Z,12.88
2023-05-21T01:13:52.414Z,13.70
2023-05-21T01:16:21.436Z,12.68
2023-05-21T01:18:50.175Z,12.07
2023-05-21T01:21:19.603Z,11.27
2023-05-21T01:23:49.081Z,11.52
2023-05-21T01:26:16.975Z,12.45
2023-05-21T01:28:44.916Z,11.70
2023-05-21T01:31:24.017Z,11.87
2023-05-21T01:33:57.618Z,13.43
2023-05-21T01:36:31.104Z,11.00
2023-05-21T01:39:08.659Z,12.50
2023-05-21T01:41:41.831Z,12.32
2023-05-21T01:44:11.187Z,11.80
2023-05-21T01:46:39.580Z,11.75
2023-05-21T01:49:09.269Z,13.20
2023-05-21T01:51:37.682Z,13.32
2023-05-21T01:54:07.135Z,13.88
2023-05-21T01:56:37.196Z,14.17
2023-05-21T01:59:05.404Z,13.68
2023-05-21T02:01:33.583Z,12.82
2023-05-21T02:04:01.913Z,11.98
2023-05-21T02:06:31.936Z,13.80
2023-05-21T02:08:59.803Z,13.80
2023-05-21T02:11:29.233Z,13.65
2023-05-21T02:13:58.303Z,13.95
2023-05-21T02:16:26.862Z,13.70
2023-05-21T02:18:57.702Z,12.77
2023-05-21T02:21:25.870Z,12.87
2023-05-21T02:23:53.852Z,14.32
2023-05-21T02:26:22.764Z,13.65
2023-05-21T02:28:53.281Z,12.48
2023-05-21T02:31:21.160Z,13.75
2023-05-21T02:33:49.070Z,13.23
2023-05-21T02:36:19.230Z,14.13
2023-05-21T02:38:47.777Z,12.95
2023-05-21T02:41:15.744Z,12.75
2023-05-21T02:43:44.109Z,14.35
2023-05-21T02:46:13.722Z,14.20
2023-05-21T02:48:41.857Z,13.40
2023-05-21T02:51:09.762Z,15.38
2023-05-21T02:53:37.833Z,13.10
2023-05-21T02:56:06.375Z,14.50
2023-05-21T02:58:34.225Z,13.37
2023-05-21T03:01:01.911Z,14.98
2023-05-21T03:03:32.604Z,18.42
2023-05-21T03:06:01.034Z,16.30
2023-05-21T03:08:29.283Z,15.50
2023-05-21T03:10:57.356Z,17.47
2023-05-21T03:13:25.438Z,15.07
2023-05-21T03:15:56.606Z,13.68
2023-05-21T03:18:24.758Z,14.45
2023-05-21T03:20:54.172Z,16.13
2023-05-21T03:23:22.026Z,12.63
2023-05-21T03:25:50.952Z,15.82
2023-05-21T03:28:19.390Z,12.88
2023-05-21T03:30:50.105Z,18.00
2023-05-21T03:33:18.508Z,15.18
2023-05-21T03:35:46.162Z,15.23
2023-05-21T03:38:15.781Z,16.08
2023-05-21T03:40:43.657Z,16.63
2023-05-21T03:43:11.502Z,13.80
2023-05-21T03:45:41.541Z,16.20
2023-05-21T03:48:11.202Z,17.57
2023-05-21T03:50:38.879Z,13.70
2023-05-21T03:53:06.862Z,14.35
2023-05-21T03:55:36.463Z,14.57
2023-05-21T03:58:04.823Z,16.17
2023-05-21T04:00:34.545Z,14.77
2023-05-21T04:03:02.406Z,14.05
2023-05-21T04:05:30.207Z,15.02
2023-05-21T04:07:58.957Z,14.10
2023-05-21T04:10:27.159Z,13.75
2023-05-21T04:12:56.560Z,16.53
2023-05-21T04:15:25.658Z,15.65
2023-05-21T04:17:55.100Z,15.07
2023-05-21T04:20:23.087Z,14.07
2023-05-21T04:22:51.768Z,16.83
2023-05-21T04:25:20.500Z,16.63
2023-05-21T04:27:48.712Z,14.30
2023-05-21T04:30:20.244Z,14.25
2023-05-21T04:32:48.493Z,15.23
2023-05-21T04:35:16.514Z,13.73
2023-05-21T04:37:46.025Z,14.57
2023-05-21T04:40:18.799Z,15.38
2023-05-21T04:42:48.439Z,15.52
2023-05-21T04:45:17.630Z,12.88
2023-05-21T04:47:48.493Z,15.70
2023-05-21T04:50:16.775Z,15.20
2023-05-21T04:52:45.705Z,15.30
2023-05-21T04:55:13.825Z,13.20
2023-05-21T04:57:41.489Z,14.07
2023-05-21T05:00:10.597Z,16.20
2023-05-21T05:02:38.599Z,14.00
2023-05-21T05:05:08.593Z,16.27
2023-05-21T05:07:37.144Z,17.05
2023-05-21T05:10:07.284Z,14.45
2023-05-21T05:12:35.229Z,15.18
2023-05-21T05:15:03.170Z,14.37
2023-05-21T05:17:31.427Z,14.85
2023-05-21T05:19:59.579Z,15.38
2023-05-21T05:22:28.704Z,14.38
2023-05-21T05:24:56.823Z,15.60
2023-05-21T05:27:24.914Z,13.00
2023-05-21T05:29:53.031Z,14.70
2023-05-21T05:32:21.027Z,14.43
2023-05-21T05:34:49.150Z,14.23
2023-05-21T05:37:17.214Z,12.93
2023-05-21T05:39:46.772Z,13.63
2023-05-21T05:42:14.441Z,15.50
2023-05-21T05:44:42.252Z,18.50
2023-05-21T05:47:10.935Z,15.65
2023-05-21T05:49:38.909Z,13.05
2023-05-21T05:52:07.700Z,16.70
2023-05-21T05:54:35.769Z,14.85
2023-05-21T05:57:05.564Z,14.27
2023-05-21T05:59:34.861Z,13.10
2023-05-21T06:02:03.228Z,13.88
2023-05-21T06:04:31.165Z,12.73
2023-05-21T06:06:59.818Z,13.57
2023-05-21T06:09:28.611Z,17.92
2023-05-21T06:11:56.642Z,13.43
2023-05-21T06:14:26.012Z,13.63
2023-05-21T06:16:54.112Z,14.07
2023-05-21T06:19:22.204Z,13.35
2023-05-21T06:21:50.277Z,14.65
2023-05-21T06:24:18.601Z,14.23
2023-05-21T06:26:46.501Z,14.63
2023-05-21T06:29:15.497Z,13.20
2023-05-21T06:31:45.589Z,14.60
2023-05-21T06:34:13.621Z,13.05
2023-05-21T06:36:42.066Z,13.48
2023-05-21T06:39:10.518Z,14.35
2023-05-21T06:41:38.478Z,14.27
2023-05-21T06:44:07.391Z,14.93
2023-05-21T06:46:35.924Z,15.07
2023-05-21T06:49:07.044Z,13.95
2023-05-21T06:51:35.201Z,13.88
2023-05-21T06:54:03.127Z,13.67
2023-05-21T06:56:44.553Z,13.75
2023-05-21T06:59:12.546Z,16.70
2023-05-21T07:01:44.196Z,12.45
2023-05-21T07:04:13.829Z,12.70
2023-05-21T07:06:42.165Z,12.63
2023-05-21T07:09:10.511Z,14.95
2023-05-21T07:11:38.989Z,14.82
2023-05-21T07:14:07.083Z,14.27
2023-05-21T07:16:35.156Z,13.50
2023-05-21T07:19:03.608Z,14.40
2023-05-21T07:21:32.714Z,12.77
2023-05-21T07:24:00.944Z,13.32
2023-05-21T07:26:29.232Z,13.80
2023-05-21T07:28:59.762Z,11.43
2023-05-21T07:31:27.953Z,13.83
2023-05-21T07:33:55.886Z,11.60
2023-05-21T07:36:24.313Z,14.35
2023-05-21T07:38:53.857Z,12.38
2023-05-21T07:41:22.061Z,13.48
2023-05-21T07:43:50.568Z,12.10
2023-05-21T07:46:18.568Z,13.50
2023-05-21T07:48:48.535Z,13.20
2023-05-21T07:51:16.831Z,11.60
2023-05-21T07:53:44.697Z,11.30
2023-05-21T07:56:13.961Z,10.60
2023-05-21T07:58:44.173Z,12.15
2023-05-21T08:01:12.574Z,13.63
2023-05-21T08:03:40.625Z,12.52
2023-05-21T08:06:08.625Z,11.52
2023-05-21T08:08:36.530Z,11.93
2023-05-21T08:11:04.654Z,11.73
2023-05-21T08:13:33.953Z,12.20
2023-05-21T08:16:01.914Z,15.68
2023-05-21T08:18:30.173Z,10.88
2023-05-21T08:20:57.818Z,13.57
2023-05-21T08:23:28.220Z,11.02
2023-05-21T08:25:56.607Z,10.25
2023-05-21T08:28:24.732Z,12.02
2023-05-21T08:30:53.992Z,10.15
2023-05-21T08:33:21.956Z,13.53
2023-05-21T08:35:49.785Z,12.07
2023-05-21T08:38:17.731Z,10.95
2023-05-21T08:40:48.090Z,10.90
2023-05-21T08:43:17.840Z,10.98
2023-05-21T08:45:47.096Z,10.80
2023-05-21T08:48:17.960Z,10.82
2023-05-21T08:50:48.323Z,10.15
2023-05-21T08:53:27.508Z,9.75
2023-05-21T08:55:57.403Z,12.63
2023-05-21T08:58:28.852Z,13.27
2023-05-21T09:00:57.539Z,10.38
2023-05-21T09:03:27.418Z,11.13
2023-05-21T09:05:56.586Z,12.02
2023-05-21T09:08:31.062Z,12.10
2023-05-21T09:10:59.028Z,12.60
2023-05-21T09:13:28.254Z,11.70
2023-05-21T09:15:56.556Z,10.23
2023-05-21T09:18:27.588Z,14.32
2023-05-21T09:20:56.989Z,11.55
2023-05-21T09:23:25.056Z,12.13
2023-05-21T09:25:52.934Z,11.98
2023-05-21T09:28:21.155Z,12.10
2023-05-21T09:30:50.134Z,11.23
2023-05-21T09:33:29.805Z,9.35
2023-05-21T09:35:58.569Z,10.30
2023-05-21T09:38:27.108Z,10.85
2023-05-21T09:40:57.237Z,9.57
2023-05-21T09:43:25.206Z,9.35
2023-05-21T09:45:54.004Z,9.60
2023-05-21T09:48:37.748Z,8.60
2023-05-21T09:51:10.929Z,9.68
2023-05-21T09:53:43.678Z,10.85
2023-05-21T09:56:11.860Z,9.50
2023-05-21T09:58:40.624Z,9.05
2023-05-21T10:01:10.185Z,8.60
2023-05-21T10:03:42.121Z,8.82
2023-05-21T10:06:11.677Z,9.93
2023-05-21T10:08:46.498Z,8.25
2023-05-21T10:11:17.033Z,9.82
2023-05-21T10:13:50.262Z,9.90
2023-05-21T10:16:22.122Z,9.60
2023-05-21T10:18:54.339Z,10.63
2023-05-21T10:21:24.124Z,10.60
2023-05-21T10:23:52.536Z,9.85
2023-05-21T10:26:21.667Z,8.40
2023-05-21T10:28:51.422Z,7.88
2023-05-21T10:31:20.120Z,8.93
2023-05-21T10:33:52.908Z,9.18
2023-05-21T10:36:21.881Z,9.80
2023-05-21T10:38:50.339Z,8.23
2023-05-21T10:41:22.349Z,8.10
2023-05-21T10:43:57.953Z,7.72
2023-05-21T10:46:47.166Z,8.00
2023-05-21T10:49:29.426Z,8.38
2023-05-21T10:52:05.845Z,6.97
2023-05-21T10:54:58.462Z,7.00
2023-05-21T10:57:46.212Z,8.75
2023-05-21T11:00:18.476Z,14.18
2023-05-21T11:02:47.218Z,8.70
2023-05-21T11:05:16.846Z,8.47
2023-05-21T11:07:58.137Z,9.45
2023-05-21T11:10:33.917Z,9.48
2023-05-21T11:13:17.596Z,7.65
2023-05-21T11:16:15.764Z,11.40
2023-05-21T11:19:04.035Z,7.03
2023-05-21T11:21:36.261Z,9.43
2023-05-21T11:24:12.146Z,9.30
2023-05-21T11:27:05.669Z,8.32
2023-05-21T11:29:56.668Z,8.52
2023-05-21T11:32:25.055Z,8.10
2023-05-21T11:34:53.141Z,7.72
2023-05-21T11:37:42.011Z,8.40
2023-05-21T11:40:27.691Z,9.02
2023-05-21T11:42:56.765Z,9.15
2023-05-21T11:45:29.648Z,8.33
2023-05-21T11:47:58.860Z,9.07
2023-05-21T11:50:27.624Z,8.93
2023-05-21T11:52:57.974Z,7.63
2023-05-21T11:55:28.147Z,7.95
2023-05-21T11:57:56.593Z,7.77
2023-05-21T12:00:24.644Z,7.50
2023-05-21T12:02:56.319Z,7.97
2023-05-21T12:05:25.303Z,8.30
2023-05-21T12:07:56.933Z,7.80
2023-05-21T12:10:30.192Z,9.43
2023-05-21T12:12:58.303Z,8.60
2023-05-21T12:15:30.020Z,8.80
2023-05-21T12:17:58.127Z,7.55
2023-05-21T12:20:30.461Z,7.90
2023-05-21T12:23:00.779Z,7.77
2023-05-21T12:25:32.065Z,7.75
2023-05-21T12:28:02.096Z,7.70
2023-05-21T12:30:29.960Z,9.00
2023-05-21T12:33:02.428Z,7.22
2023-05-21T12:35:32.047Z,8.30
2023-05-21T12:38:03.856Z,8.32
2023-05-21T12:40:40.235Z,8.23
2023-05-21T12:43:08.928Z,7.28
2023-05-21T12:45:39.344Z,7.28
2023-05-21T12:48:07.822Z,10.63
2023-05-21T12:50:36.589Z,8.75
2023-05-21T12:53:04.661Z,8.55
2023-05-21T12:55:33.050Z,8.15
2023-05-21T12:58:09.302Z,8.43
2023-05-21T13:00:40.493Z,8.30
2023-05-21T13:03:08.876Z,7.78
2023-05-21T13:05:36.731Z,9.23
2023-05-21T13:08:04.532Z,9.55
2023-05-21T13:10:32.665Z,7.90
2023-05-21T13:13:00.836Z,8.33
2023-05-21T13:15:31.784Z,7.55
2023-05-21T13:18:02.013Z,6.75
2023-05-21T13:20:32.869Z,7.45
2023-05-21T13:23:03.508Z,7.15
2023-05-21T13:25:34.103Z,7.47
2023-05-21T13:28:07.112Z,9.50
2023-05-21T13:30:36.825Z,7.22
2023-05-21T13:33:07.629Z,7.90
2023-05-21T13:35:35.888Z,8.35
2023-05-21T13:38:03.992Z,7.60
2023-05-21T13:40:32.620Z,7.50
2023-05-21T13:43:01.095Z,7.75
2023-05-21T13:45:30.225Z,7.00
2023-05-21T13:48:01.486Z,6.88
2023-05-21T13:50:29.297Z,6.27
2023-05-21T13:52:59.427Z,8.35
2023-05-21T13:55:29.087Z,9.23
2023-05-21T13:57:58.719Z,9.60
2023-05-21T14:00:26.398Z,7.90
2023-05-21T14:02:54.485Z,8.10
2023-05-21T14:05:25.300Z,6.20
2023-05-21T14:07:53.072Z,7.72
2023-05-21T14:10:25.812Z,6.60
2023-05-21T14:13:04.243Z,7.72
2023-05-21T14:15:42.935Z,7.33
2023-05-21T14:18:12.486Z,8.98
2023-05-21T14:20:41.901Z,6.93
2023-05-21T14:23:11.729Z,7.68
2023-05-21T14:25:39.342Z,7.25
2023-05-21T14:28:07.621Z,8.80
2023-05-21T14:30:35.678Z,6.90
2023-05-21T14:33:04.138Z,7.03
2023-05-21T14:35:31.830Z,7.97
2023-05-21T14:38:00.975Z,7.50
2023-05-21T14:40:30.356Z,6.47
2023-05-21T14:42:58.134Z,8.82
2023-05-21T14:45:25.927Z,7.20
2023-05-21T14:47:56.350Z,6.68
2023-05-21T14:50:24.701Z,8.75
2023-05-21T14:52:52.604Z,6.50
2023-05-21T14:55:22.391Z,6.82
2023-05-21T14:57:50.512Z,7.85
2023-05-21T15:00:18.349Z,12.77
2023-05-21T15:02:46.564Z,9.35
2023-05-21T15:05:14.682Z,9.33
2023-05-21T15:07:43.545Z,6.93
2023-05-21T15:10:11.963Z,8.40
2023-05-21T15:12:42.378Z,7.05
2023-05-21T15:15:13.458Z,6.85
2023-05-21T15:17:43.204Z,7.33
2023-05-21T15:20:11.525Z,7.90
2023-05-21T15:22:42.309Z,7.18
2023-05-21T15:25:11.831Z,6.47
2023-05-21T15:27:41.011Z,6.47
2023-05-21T15:30:09.679Z,7.07
2023-05-21T15:32:37.853Z,8.98
2023-05-21T15:35:06.526Z,7.35
2023-05-21T15:37:34.406Z,7.18
2023-05-21T15:40:02.991Z,7.75
2023-05-21T15:42:31.936Z,6.70
2023-05-21T15:45:01.375Z,7.03
2023-05-21T15:47:29.565Z,7.90
2023-05-21T15:49:58.943Z,6.10
2023-05-21T15:52:26.931Z,8.07
2023-05-21T15:54:55.324Z,8.07
2023-05-21T15:57:23.233Z,7.15
2023-05-21T15:59:52.521Z,9.02
2023-05-21T16:02:21.991Z,7.93
2023-05-21T16:04:51.754Z,7.47
2023-05-21T16:07:19.996Z,6.10
2023-05-21T16:09:48.408Z,8.25
2023-05-21T16:12:16.544Z,6.20
2023-05-21T16:14:44.622Z,9.15
2023-05-21T16:17:13.249Z,6.53
2023-05-21T16:19:45.399Z,7.53
2023-05-21T16:22:13.946Z,5.97
2023-05-21T16:24:41.751Z,7.40
2023-05-21T16:27:09.870Z,6.55
2023-05-21T16:29:40.056Z,7.25
2023-05-21T16:32:10.757Z,6.20
2023-05-21T16:34:38.531Z,7.78
2023-05-21T16:37:09.989Z,6.50
2023-05-21T16:39:38.767Z,8.32
2023-05-21T16:42:07.147Z,7.22
2023-05-21T16:44:36.922Z,7.80
2023-05-21T16:47:05.682Z,6.82
2023-05-21T16:49:33.374Z,9.13
2023-05-21T16:52:03.424Z,6.63
2023-05-21T16:54:32.755Z,8.65
2023-05-21T16:57:01.646Z,6.23
2023-05-21T16:59:29.634Z,7.03
2023-05-21T17:01:57.665Z,6.88
2023-05-21T17:04:26.151Z,6.32
2023-05-21T17:06:56.292Z,7.30
2023-05-21T17:09:24.242Z,7.43
2023-05-21T17:11:53.547Z,7.43
2023-05-21T17:14:32.929Z,7.40
2023-05-21T17:17:02.871Z,6.93
2023-05-21T17:19:32.474Z,10.02
2023-05-21T17:22:00.493Z,7.23
2023-05-21T17:24:28.592Z,9.35
2023-05-21T17:26:58.241Z,8.93
2023-05-21T17:29:26.377Z,9.65
2023-05-21T17:31:54.447Z,8.65
2023-05-21T17:34:27.412Z,8.27
2023-05-21T17:36:55.639Z,7.18
2023-05-21T17:39:24.772Z,9.20
2023-05-21T17:41:53.064Z,6.85
2023-05-21T17:44:22.784Z,7.85
2023-05-21T17:46:52.326Z,8.27
2023-05-21T17:49:20.670Z,7.28
2023-05-21T17:51:49.212Z,9.00
2023-05-21T17:54:17.116Z,7.45
2023-05-21T17:56:46.520Z,7.50
2023-05-21T17:59:15.955Z,7.63
2023-05-21T18:01:45.018Z,9.48
2023-05-21T18:04:13.459Z,7.25
2023-05-21T18:06:41.735Z,7.07
2023-05-21T18:09:10.569Z,9.27
2023-05-21T18:11:38.660Z,7.00
2023-05-21T18:14:06.574Z,7.53
2023-05-21T18:16:34.619Z,8.73
2023-05-21T18:19:05.991Z,7.05
2023-05-21T18:21:35.536Z,7.70
2023-05-21T18:24:03.408Z,9.00
2023-05-21T18:26:31.533Z,7.20
2023-05-21T18:28:59.873Z,7.28
2023-05-21T18:31:28.794Z,7.22
2023-05-21T18:33:58.161Z,6.65
2023-05-21T18:36:27.781Z,6.63
2023-05-21T18:38:59.299Z,6.95
2023-05-21T18:41:27.222Z,7.60
2023-05-21T18:43:55.450Z,6.97
2023-05-21T18:46:24.077Z,8.48
2023-05-21T18:48:51.850Z,8.00
2023-05-21T18:51:19.829Z,6.07
2023-05-21T18:53:49.350Z,6.68
2023-05-21T18:56:18.227Z,7.55
2023-05-21T18:58:46.259Z,10.07
2023-05-21T19:01:14.309Z,6.47
2023-05-21T19:03:42.110Z,7.75
2023-05-21T19:06:10.777Z,5.85
2023-05-21T19:08:40.902Z,6.07
2023-05-21T19:11:12.244Z,7.72
2023-05-21T19:13:43.066Z,8.27
2023-05-21T19:16:11.459Z,6.10
2023-05-21T19:18:43.395Z,7.57
2023-05-21T19:21:11.514Z,7.28
2023-05-21T19:23:52.088Z,7.63
2023-05-21T19:26:23.276Z,8.47
2023-05-21T19:28:53.779Z,5.70
2023-05-21T19:31:23.328Z,8.07
2023-05-21T19:33:51.746Z,7.40
2023-05-21T19:36:21.745Z,8.15
2023-05-21T19:38:51.387Z,7.37
2023-05-21T19:41:26.059Z,7.10
2023-05-21T19:43:53.680Z,7.78
2023-05-21T19:46:21.800Z,7.32
2023-05-21T19:48:50.124Z,7.00
2023-05-21T19:51:18.764Z,7.20
2023-05-21T19:53:49.837Z,6.35
2023-05-21T19:56:17.875Z,8.25
2023-05-21T19:58:48.403Z,7.35
2023-05-21T20:01:17.900Z,6.47
2023-05-21T20:03:46.352Z,8.43
2023-05-21T20:06:20.011Z,7.85
2023-05-21T20:08:48.221Z,8.57
2023-05-21T20:11:16.682Z,7.03
2023-05-21T20:13:50.674Z,7.57
2023-05-21T20:16:20.226Z,7.20
2023-05-21T20:18:49.199Z,7.68
2023-05-21T20:21:20.357Z,8.13
2023-05-21T20:23:49.630Z,7.97
2023-05-21T20:26:18.931Z,6.85
2023-05-21T20:28:48.524Z,7.67
2023-05-21T20:31:17.296Z,7.80
2023-05-21T20:33:46.394Z,9.07
2023-05-21T20:36:15.523Z,9.00
2023-05-21T20:38:45.628Z,6.72
2023-05-21T20:41:14.774Z,7.77
2023-05-21T20:43:47.848Z,7.13
2023-05-21T20:46:20.717Z,6.65
2023-05-21T20:48:50.116Z,6.95
2023-05-21T20:51:18.346Z,7.63
2023-05-21T20:53:47.106Z,7.83
2023-05-21T20:56:23.896Z,7.90
2023-05-21T20:58:58.420Z,8.90
2023-05-21T21:01:30.753Z,7.15
2023-05-21T21:03:59.931Z,7.97
2023-05-21T21:06:30.155Z,6.70
2023-05-21T21:08:58.076Z,9.32
2023-05-21T21:11:26.830Z,11.93
2023-05-21T21:13:54.770Z,11.57
2023-05-21T21:16:22.972Z,13.90
2023-05-21T21:18:52.413Z,10.23
2023-05-21T21:21:21.295Z,11.20
2023-05-21T21:23:49.430Z,9.68
2023-05-21T21:26:17.748Z,10.30
2023-05-21T21:28:46.677Z,9.63
2023-05-21T21:31:17.468Z,10.00
2023-05-21T21:33:45.740Z,10.30
2023-05-21T21:36:15.621Z,9.65
2023-05-21T21:38:44.072Z,10.13
2023-05-21T21:41:12.177Z,10.85
2023-05-21T21:43:40.430Z,11.30
2023-05-21T21:46:08.244Z,8.90
2023-05-21T21:48:36.494Z,10.48
2023-05-21T21:51:04.809Z,8.32
2023-05-21T21:53:35.764Z,9.40
2023-05-21T21:56:03.993Z,9.73
2023-05-21T21:58:32.924Z,11.23
2023-05-21T22:01:00.883Z,10.15
2023-05-21T22:03:29.366Z,10.38
2023-05-21T22:05:57.303Z,9.80
2023-05-21T22:08:28.844Z,9.80
2023-05-21T22:10:58.828Z,9.23
2023-05-21T22:13:29.302Z,9.90
2023-05-21T22:15:58.546Z,10.57
2023-05-21T22:18:39.767Z,8.68
2023-05-21T22:21:10.343Z,9.10
2023-05-21T22:23:40.032Z,9.70
2023-05-21T22:26:10.367Z,9.18
2023-05-21T22:28:38.714Z,10.77
2023-05-21T22:31:07.087Z,9.57
2023-05-21T22:33:35.217Z,9.13
2023-05-21T22:36:03.176Z,9.27
2023-05-21T22:38:31.267Z,9.95
2023-05-21T22:41:01.475Z,9.82
2023-05-21T22:43:31.354Z,11.45
2023-05-21T22:46:02.886Z,9.27
2023-05-21T22:48:31.759Z,10.60
2023-05-21T22:51:01.885Z,9.63
2023-05-21T22:53:30.464Z,11.80
2023-05-21T22:55:58.399Z,10.02
2023-05-21T22:58:26.952Z,11.13
2023-05-21T23:00:56.236Z,10.20
2023-05-21T23:03:24.228Z,10.80
2023-05-21T23:05:52.293Z,10.88
2023-05-21T23:08:21.057Z,9.98
2023-05-21T23:10:49.285Z,10.53
2023-05-21T23:13:17.404Z,10.02
2023-05-21T23:15:48.715Z,10.77
2023-05-21T23:18:18.427Z,11.48
2023-05-21T23:20:46.552Z,9.48
2023-05-21T23:23:14.485Z,10.77
2023-05-21T23:25:42.854Z,9.25
2023-05-21T23:28:11.209Z,10.05
2023-05-21T23:30:39.321Z,11.68
2023-05-21T23:33:07.973Z,9.85
2023-05-21T23:35:37.511Z,9.63
2023-05-21T23:38:05.577Z,11.57
2023-05-21T23:40:33.608Z,9.63
2023-05-21T23:43:01.720Z,10.00
2023-05-21T23:45:29.652Z,10.65
2023-05-21T23:47:57.663Z,10.60
2023-05-21T23:50:26.446Z,10.73
2023-05-21T23:52:56.962Z,9.90
2023-05-21T23:55:25.157Z,10.48
2023-05-21T23:57:53.777Z,9.35
